createdAt,value
2023-01-11T00:01:10.023Z,7.00
2023-01-11T00:03:36.807Z,7.00
2023-01-11T00:06:03.867Z,7.10
2023-01-11T00:08:31.673Z,7.00
2023-01-11T00:10:58.702Z,7.10
2023-01-11T00:13:25.417Z,7.20
2023-01-11T00:15:52.370Z,7.20
2023-01-11T00:18:20.680Z,7.20
2023-01-11T00:20:47.820Z,7.30
2023-01-11T00:23:14.904Z,7.20
2023-01-11T00:25:41.631Z,7.20
2023-01-11T00:28:09.062Z,7.20
2023-01-11T00:30:35.993Z,7.30
2023-01-11T00:33:02.976Z,7.30
2023-01-11T00:35:31.424Z,7.30
2023-01-11T00:37:58.686Z,7.30
2023-01-11T00:40:25.548Z,7.30
2023-01-11T00:42:52.993Z,7.30
2023-01-11T00:45:19.744Z,7.40
2023-01-11T00:47:46.613Z,7.40
2023-01-11T00:50:13.758Z,7.40
2023-01-11T00:52:41.944Z,7.50
2023-01-11T00:55:09.591Z,7.40
2023-01-11T00:57:36.489Z,7.50
2023-01-11T01:00:04.994Z,7.40
2023-01-11T01:02:32.250Z,7.40
2023-01-11T01:05:00.028Z,7.40
2023-01-11T01:07:27.172Z,7.60
2023-01-11T01:09:55.582Z,7.50
2023-01-11T01:12:22.922Z,7.60
2023-01-11T01:14:49.632Z,7.60
2023-01-11T01:17:17.226Z,7.60
2023-01-11T01:19:44.416Z,7.70
2023-01-11T01:22:11.248Z,7.60
2023-01-11T01:24:38.009Z,7.70
2023-01-11T01:27:06.260Z,7.60
2023-01-11T01:29:33.382Z,7.70
2023-01-11T01:32:00.143Z,7.80
2023-01-11T01:34:27.111Z,7.70
2023-01-11T01:36:53.962Z,7.70
2023-01-11T01:39:20.989Z,7.80
2023-01-11T01:41:47.696Z,7.80
2023-01-11T01:45:06.402Z,7.80
2023-01-11T01:47:42.631Z,7.60
2023-01-11T01:50:17.557Z,7.60
2023-01-11T01:52:50.225Z,7.60
2023-01-11T01:55:26.688Z,7.60
2023-01-11T01:57:55.398Z,7.80
2023-01-11T02:00:24.148Z,7.70
2023-01-11T02:02:52.263Z,7.80
2023-01-11T02:05:19.871Z,7.70
2023-01-11T02:07:47.502Z,7.70
2023-01-11T02:10:17.668Z,7.80
2023-01-11T02:12:52.643Z,7.80
2023-01-11T02:15:23.741Z,7.80
2023-01-11T02:17:51.377Z,7.80
2023-01-11T02:20:48.462Z,7.80
2023-01-11T02:24:10.163Z,7.90
2023-01-11T02:27:04.793Z,7.80
2023-01-11T02:29:50.296Z,7.80
2023-01-11T02:32:30.787Z,7.90
2023-01-11T02:35:13.996Z,7.90
2023-01-11T02:37:55.281Z,7.90
2023-01-11T02:40:29.748Z,7.80
2023-01-11T02:43:10.095Z,7.90
2023-01-11T02:45:50.634Z,7.90
2023-01-11T02:48:29.954Z,8.00
2023-01-11T02:51:05.823Z,7.90
2023-01-11T02:53:39.694Z,8.00
2023-01-11T02:56:13.626Z,8.10
2023-01-11T02:58:45.119Z,8.10
2023-01-11T03:01:14.888Z,8.10
2023-01-11T03:03:41.703Z,8.20
2023-01-11T03:06:16.964Z,8.20
2023-01-11T03:09:14.387Z,8.10
2023-01-11T03:12:07.719Z,8.20
2023-01-11T03:14:50.577Z,8.20
2023-01-11T03:17:42.271Z,8.20
2023-01-11T03:20:20.664Z,8.40
2023-01-11T03:23:09.897Z,8.40
2023-01-11T03:25:53.652Z,8.50
2023-01-11T03:28:32.323Z,8.40
2023-01-11T03:31:05.937Z,8.30
2023-01-11T03:33:44.516Z,8.30
2023-01-11T03:36:19.261Z,8.50
2023-01-11T03:38:54.280Z,8.50
2023-01-11T03:41:26.962Z,8.40
2023-01-11T03:43:59.871Z,8.40
2023-01-11T03:46:34.479Z,8.40
2023-01-11T03:49:10.348Z,8.40
2023-01-11T03:51:43.046Z,8.50
2023-01-11T03:54:15.430Z,8.40
2023-01-11T03:56:59.318Z,8.50
2023-01-11T03:59:27.326Z,8.60
2023-01-11T04:01:54.622Z,8.50
2023-01-11T04:04:22.758Z,8.60
2023-01-11T04:06:50.019Z,8.60
2023-01-11T04:09:17.011Z,8.60
2023-01-11T04:11:44.204Z,8.60
2023-01-11T04:14:11.497Z,8.70
2023-01-11T04:16:38.319Z,8.70
2023-01-11T04:19:05.306Z,8.80
2023-01-11T04:21:33.606Z,8.80
2023-01-11T04:24:00.339Z,8.90
2023-01-11T04:26:27.374Z,8.80
2023-01-11T04:28:54.583Z,8.90
2023-01-11T04:31:21.734Z,8.90
2023-01-11T04:33:48.655Z,9.10
2023-01-11T04:36:15.680Z,9.00
2023-01-11T04:38:44.195Z,9.00
2023-01-11T04:41:10.940Z,9.10
2023-01-11T04:43:37.883Z,9.10
2023-01-11T04:46:06.997Z,9.10
2023-01-11T04:48:33.748Z,9.10
2023-01-11T04:51:00.739Z,9.10
2023-01-11T04:53:27.589Z,9.10
2023-01-11T04:56:00.394Z,9.10
2023-01-11T04:58:30.158Z,9.20
2023-01-11T05:00:57.447Z,9.20
2023-01-11T05:03:25.168Z,9.20
2023-01-11T05:05:56.027Z,9.30
2023-01-11T05:08:23.666Z,9.40
2023-01-11T05:10:52.726Z,9.40
2023-01-11T05:13:21.783Z,9.50
2023-01-11T05:15:48.698Z,9.50
2023-01-11T05:18:15.447Z,9.40
2023-01-11T05:20:42.787Z,9.40
2023-01-11T05:23:09.995Z,9.50
2023-01-11T05:25:40.675Z,9.50
2023-01-11T05:28:07.751Z,9.50
2023-01-11T05:30:35.879Z,9.50
2023-01-11T05:33:02.839Z,9.40
2023-01-11T05:35:29.809Z,9.40
2023-01-11T05:37:56.584Z,9.50
2023-01-11T05:40:23.342Z,9.70
2023-01-11T05:42:50.201Z,9.60
2023-01-11T05:45:17.176Z,9.50
2023-01-11T05:47:45.393Z,9.60
2023-01-11T05:50:12.275Z,9.70
2023-01-11T05:52:39.041Z,9.50
2023-01-11T05:55:08.114Z,9.60
2023-01-11T05:57:34.976Z,9.60
2023-01-11T06:00:02.243Z,9.70
2023-01-11T06:02:34.686Z,9.60
2023-01-11T06:05:03.706Z,9.70
2023-01-11T06:07:30.502Z,9.70
2023-01-11T06:09:57.284Z,9.60
2023-01-11T06:12:24.238Z,9.60
2023-01-11T06:14:51.161Z,9.70
2023-01-11T06:17:18.081Z,9.70
2023-01-11T06:19:44.902Z,9.70
2023-01-11T06:22:13.468Z,9.70
2023-01-11T06:24:40.218Z,9.70
2023-01-11T06:27:06.971Z,9.80
2023-01-11T06:29:34.602Z,9.80
2023-01-11T06:32:01.518Z,9.80
2023-01-11T06:34:28.458Z,9.80
2023-01-11T06:36:55.849Z,10.00
2023-01-11T06:39:26.107Z,9.90
2023-01-11T06:41:52.887Z,9.80
2023-01-11T06:44:19.800Z,9.90
2023-01-11T06:46:46.562Z,9.90
2023-01-11T06:49:13.500Z,9.80
2023-01-11T06:51:40.231Z,9.80
2023-01-11T06:56:59.662Z,9.90
2023-01-11T06:59:26.456Z,10.00
2023-01-11T07:01:53.372Z,10.00
2023-01-11T07:04:20.083Z,10.00
2023-01-11T07:06:46.993Z,10.00
2023-01-11T07:09:14.731Z,10.00
2023-01-11T07:11:41.957Z,10.10
2023-01-11T07:14:10.273Z,10.10
2023-01-11T07:16:38.807Z,10.10
2023-01-11T07:21:57.035Z,10.10
2023-01-11T07:24:29.806Z,10.10
2023-01-11T07:26:56.606Z,10.10
2023-01-11T07:29:25.466Z,10.10
2023-01-11T07:31:52.206Z,10.20
2023-01-11T07:34:19.219Z,10.10
2023-01-11T07:36:46.246Z,10.20
2023-01-11T07:39:13.055Z,10.20
2023-01-11T07:41:42.194Z,10.20
2023-01-11T07:44:11.990Z,10.20
2023-01-11T07:46:40.248Z,10.20
2023-01-11T07:49:07.192Z,10.30
2023-01-11T07:51:33.986Z,10.40
2023-01-11T07:54:00.963Z,10.40
2023-01-11T07:56:27.985Z,10.40
2023-01-11T07:58:55.070Z,10.50
2023-01-11T08:01:22.686Z,10.50
2023-01-11T08:03:51.055Z,10.50
2023-01-11T08:06:17.919Z,10.50
2023-01-11T08:08:45.488Z,10.50
2023-01-11T08:11:12.463Z,10.50
2023-01-11T08:13:39.170Z,10.50
2023-01-11T08:16:06.573Z,10.50
2023-01-11T08:18:33.345Z,10.60
2023-01-11T08:21:01.466Z,10.60
2023-01-11T08:23:28.446Z,10.70
2023-01-11T08:25:56.759Z,10.70
2023-01-11T08:28:23.537Z,10.70
2023-01-11T08:30:50.348Z,10.70
2023-01-11T08:33:17.100Z,10.80
2023-01-11T08:35:43.863Z,10.80
2023-01-11T08:38:11.959Z,10.80
2023-01-11T08:40:40.028Z,10.80
2023-01-11T08:43:06.807Z,10.90
2023-01-11T08:45:33.818Z,10.90
2023-01-11T08:48:00.610Z,11.00
2023-01-11T08:50:27.807Z,11.10
2023-01-11T08:52:54.610Z,11.20
2023-01-11T08:55:22.864Z,11.30
2023-01-11T08:57:49.681Z,11.40
2023-01-11T09:00:18.155Z,11.30
2023-01-11T09:02:45.013Z,11.40
2023-01-11T09:05:11.856Z,11.40
2023-01-11T09:07:38.840Z,11.50
2023-01-11T09:10:06.951Z,11.50
2023-01-11T09:12:35.602Z,11.50
2023-01-11T09:15:03.627Z,11.50
2023-01-11T09:17:30.558Z,11.50
2023-01-11T09:19:57.807Z,11.50
2023-01-11T09:22:24.603Z,11.50
2023-01-11T09:24:51.368Z,11.50
2023-01-11T09:27:18.433Z,11.50
2023-01-11T09:29:46.593Z,11.50
2023-01-11T09:32:13.517Z,11.50
2023-01-11T09:34:40.387Z,11.50
2023-01-11T09:37:07.300Z,11.40
2023-01-11T09:39:34.709Z,11.40
2023-01-11T09:42:27.615Z,11.50
2023-01-11T09:45:01.164Z,11.50
2023-01-11T09:47:35.233Z,11.50
2023-01-11T09:50:10.041Z,11.50
2023-01-11T09:52:41.631Z,11.60
2023-01-11T09:55:14.560Z,11.70
2023-01-11T09:57:56.867Z,11.70
2023-01-11T10:00:31.240Z,11.70
2023-01-11T10:03:21.406Z,11.70
2023-01-11T10:06:06.655Z,11.70
2023-01-11T10:18:28.737Z,11.80
2023-01-11T10:18:48.823Z,11.80
2023-01-11T10:21:13.527Z,11.80
2023-01-11T10:23:49.464Z,11.80
2023-01-11T10:26:25.517Z,11.90
2023-01-11T10:29:00.381Z,11.90
2023-01-11T10:31:28.966Z,12.00
2023-01-11T10:34:03.185Z,12.00
2023-01-11T10:36:38.659Z,12.10
2023-01-11T10:39:15.999Z,12.20
2023-01-11T10:41:50.300Z,12.20
2023-01-11T10:44:24.395Z,12.20
2023-01-11T10:46:54.274Z,12.30
2023-01-11T10:49:36.255Z,12.30
2023-01-11T10:52:14.477Z,12.30
2023-01-11T10:54:43.283Z,12.30
2023-01-11T10:57:24.406Z,12.30
2023-01-11T11:00:21.110Z,12.30
2023-01-11T11:03:12.994Z,12.30
2023-01-11T11:05:50.016Z,12.20
2023-01-11T11:08:27.378Z,12.10
2023-01-11T11:11:01.377Z,12.20
2023-01-11T11:13:46.287Z,12.20
2023-01-11T11:16:34.050Z,12.10
2023-01-11T11:19:01.069Z,12.10
2023-01-11T11:21:35.512Z,12.00
2023-01-11T11:24:14.441Z,11.90
2023-01-11T11:26:47.318Z,11.80
2023-01-11T11:29:22.261Z,11.70
2023-01-11T11:31:50.707Z,11.80
2023-01-11T11:34:20.357Z,11.80
2023-01-11T11:36:51.605Z,11.90
2023-01-11T11:39:21.917Z,11.90
2023-01-11T11:41:51.735Z,12.00
2023-01-11T11:44:21.899Z,12.00
2023-01-11T11:47:03.488Z,12.10
2023-01-11T11:49:32.455Z,12.10
2023-01-11T11:52:03.497Z,12.10
2023-01-11T11:54:34.132Z,12.20
2023-01-11T11:57:17.166Z,12.20
2023-01-11T11:59:47.743Z,12.20
2023-01-11T12:02:24.807Z,12.20
2023-01-11T12:04:54.047Z,12.20
2023-01-11T12:07:26.887Z,12.20
2023-01-11T12:10:00.754Z,12.10
2023-01-11T12:12:29.598Z,12.10
2023-01-11T12:15:19.308Z,12.00
2023-01-11T12:17:47.076Z,11.90
2023-01-11T12:20:34.347Z,12.00
2023-01-11T12:23:26.422Z,11.90
2023-01-11T12:26:18.597Z,12.00
2023-01-11T12:29:36.046Z,11.90
2023-01-11T12:32:26.411Z,11.80
2023-01-11T12:35:26.266Z,11.80
2023-01-11T12:38:21.912Z,11.80
2023-01-11T12:41:16.629Z,11.70
2023-01-11T12:43:59.686Z,11.70
2023-01-11T12:46:51.759Z,11.70
2023-01-11T12:49:35.664Z,11.80
2023-01-11T12:52:33.940Z,11.70
2023-01-11T12:55:22.055Z,11.80
2023-01-11T12:57:58.516Z,11.70
2023-01-11T13:00:52.968Z,11.70
2023-01-11T13:04:21.019Z,11.70
2023-01-11T13:06:59.018Z,11.70
2023-01-11T13:09:43.869Z,11.70
2023-01-11T13:12:20.801Z,11.60
2023-01-11T13:15:04.879Z,11.60
2023-01-11T13:17:44.224Z,11.60
2023-01-11T13:20:48.694Z,11.60
2023-01-11T13:23:38.759Z,11.60
2023-01-11T13:26:22.617Z,11.70
2023-01-11T13:28:57.662Z,11.80
2023-01-11T13:31:26.780Z,11.90
2023-01-11T13:34:00.139Z,12.10
2023-01-11T13:36:38.488Z,12.20
2023-01-11T13:39:16.396Z,12.40
2023-01-11T13:41:48.851Z,12.60
2023-01-11T13:44:23.136Z,12.60
2023-01-11T13:47:02.803Z,12.60
2023-01-11T13:49:47.369Z,12.50
2023-01-11T13:52:17.572Z,12.40
2023-01-11T13:54:58.495Z,12.30
2023-01-11T13:57:34.962Z,12.10
2023-01-11T14:00:14.864Z,11.90
2023-01-11T14:02:49.423Z,11.70
2023-01-11T14:05:19.723Z,11.60
2023-01-11T14:08:06.947Z,11.50
2023-01-11T14:10:42.924Z,11.50
2023-01-11T14:13:43.418Z,11.40
2023-01-11T14:16:21.516Z,11.30
2023-01-11T14:19:03.445Z,11.20
2023-01-11T14:21:43.652Z,11.10
2023-01-11T14:24:12.130Z,11.10
2023-01-11T14:27:05.825Z,11.00
2023-01-11T14:30:16.433Z,11.00
2023-01-11T14:33:06.722Z,10.90
2023-01-11T14:35:57.571Z,10.90
2023-01-11T14:38:59.198Z,10.80
2023-01-11T14:42:00.608Z,10.80
2023-01-11T14:44:51.926Z,10.80
2023-01-11T14:47:54.647Z,10.70
2023-01-11T14:50:32.544Z,10.60
2023-01-11T14:53:31.128Z,10.50
2023-01-11T14:55:58.098Z,10.50
2023-01-11T14:58:27.661Z,10.50
2023-01-11T15:01:11.143Z,10.40
2023-01-11T15:03:56.547Z,10.40
2023-01-11T15:06:23.686Z,10.30
2023-01-11T15:08:55.387Z,10.20
2023-01-11T15:11:33.487Z,10.20
2023-01-11T15:14:06.944Z,10.20
2023-01-11T15:16:36.490Z,10.20
2023-01-11T15:19:08.084Z,10.10
2023-01-11T15:21:40.964Z,10.10
2023-01-11T15:24:42.241Z,10.00
2023-01-11T15:27:37.987Z,9.90
2023-01-11T15:30:08.149Z,9.90
2023-01-11T15:32:36.470Z,9.90
2023-01-11T15:35:33.532Z,9.90
2023-01-11T15:38:13.896Z,9.90
2023-01-11T15:40:45.114Z,9.80
2023-01-11T15:43:54.640Z,9.80
2023-01-11T15:46:58.016Z,9.70
2023-01-11T15:50:04.910Z,9.70
2023-01-11T15:53:22.464Z,9.60
2023-01-11T15:56:26.023Z,9.60
2023-01-11T15:59:33.780Z,9.50
2023-01-11T16:02:58.871Z,9.50
2023-01-11T16:05:30.216Z,9.40
2023-01-11T16:08:10.358Z,9.40
2023-01-11T16:10:56.069Z,9.40
2023-01-11T16:13:57.563Z,9.30
2023-01-11T16:16:28.556Z,9.30
2023-01-11T16:19:03.746Z,9.20
2023-01-11T16:21:34.224Z,9.20
2023-01-11T16:24:04.279Z,9.20
2023-01-11T16:26:31.450Z,9.20
2023-01-11T16:28:59.616Z,9.20
2023-01-11T16:31:58.333Z,9.20
2023-01-11T16:34:26.041Z,9.20
2023-01-11T16:36:52.833Z,9.10
2023-01-11T16:39:24.327Z,9.10
2023-01-11T16:41:58.152Z,9.10
2023-01-11T16:44:40.775Z,9.10
2023-01-11T16:47:14.407Z,9.10
2023-01-11T16:49:44.230Z,9.10
2023-01-11T16:52:37.088Z,9.10
2023-01-11T16:55:15.248Z,9.10
2023-01-11T16:57:47.699Z,9.00
2023-01-11T17:00:27.400Z,9.00
2023-01-11T17:03:28.252Z,8.90
2023-01-11T17:06:18.220Z,8.90
2023-01-11T17:08:48.148Z,8.90
2023-01-11T17:11:26.470Z,8.90
2023-01-11T17:14:32.939Z,8.90
2023-01-11T17:17:04.272Z,8.80
2023-01-11T17:19:35.252Z,8.80
2023-01-11T17:22:06.661Z,8.80
2023-01-11T17:24:40.648Z,8.90
2023-01-11T17:27:16.678Z,8.90
2023-01-11T17:29:46.240Z,8.80
2023-01-11T17:32:21.593Z,8.80
2023-01-11T17:34:50.395Z,8.80
2023-01-11T17:37:19.148Z,8.70
2023-01-11T17:39:50.051Z,8.70
2023-01-11T17:42:18.158Z,8.70
2023-01-11T17:44:47.542Z,8.70
2023-01-11T17:47:16.102Z,8.70
2023-01-11T17:49:42.916Z,8.60
2023-01-11T17:52:18.311Z,8.60
2023-01-11T17:54:45.169Z,8.60
2023-01-11T17:57:14.304Z,8.60
2023-01-11T17:59:41.088Z,8.70
2023-01-11T18:02:14.349Z,8.70
2023-01-11T18:04:43.041Z,8.70
2023-01-11T18:07:17.235Z,8.70
2023-01-11T18:09:48.529Z,8.70
2023-01-11T18:12:21.184Z,8.70
2023-01-11T18:14:52.717Z,8.70
2023-01-11T18:17:35.936Z,8.80
2023-01-11T18:20:33.790Z,8.80
2023-01-11T18:23:05.375Z,8.70
2023-01-11T18:25:34.791Z,8.70
2023-01-11T18:28:29.410Z,8.70
2023-01-11T18:30:59.427Z,8.60
2023-01-11T18:33:29.884Z,8.70
2023-01-11T18:36:01.561Z,8.60
2023-01-11T18:38:31.171Z,8.60
2023-01-11T18:41:03.650Z,8.60
2023-01-11T18:43:31.302Z,8.60
2023-01-11T18:45:58.113Z,8.50
2023-01-11T18:48:24.879Z,8.60
2023-01-11T18:50:52.244Z,8.50
2023-01-11T18:53:45.255Z,8.50
2023-01-11T18:56:12.176Z,8.50
2023-01-11T18:58:38.896Z,8.50
2023-01-11T19:01:07.833Z,8.50
2023-01-11T19:03:34.983Z,8.50
2023-01-11T19:06:01.944Z,8.50
2023-01-11T19:08:30.122Z,8.50
2023-01-11T19:10:58.931Z,8.50
2023-01-11T19:13:25.778Z,8.50
2023-01-11T19:15:52.509Z,8.50
2023-01-11T19:18:19.361Z,8.50
2023-01-11T19:20:46.091Z,8.40
2023-01-11T19:23:13.090Z,8.50
2023-01-11T19:25:39.868Z,8.40
2023-01-11T19:28:07.947Z,8.40
2023-01-11T19:30:34.862Z,8.30
2023-01-11T19:33:01.704Z,8.30
2023-01-11T19:35:28.591Z,8.30
2023-01-11T19:37:56.007Z,8.30
2023-01-11T19:40:22.733Z,8.40
2023-01-11T19:42:49.478Z,8.30
2023-01-11T19:45:18.136Z,8.30
2023-01-11T19:47:45.134Z,8.20
2023-01-11T19:50:11.860Z,8.20
2023-01-11T19:52:38.853Z,8.20
2023-01-11T19:55:06.760Z,8.20
2023-01-11T19:57:33.835Z,8.20
2023-01-11T20:00:00.587Z,8.10
2023-01-11T20:02:28.787Z,8.10
2023-01-11T20:04:55.536Z,8.10
2023-01-11T20:07:22.442Z,8.10
2023-01-11T20:09:49.364Z,8.10
2023-01-11T20:12:16.119Z,8.20
2023-01-11T20:14:43.588Z,8.10
2023-01-11T20:17:10.638Z,8.10
2023-01-11T20:19:39.417Z,8.10
2023-01-11T20:22:06.307Z,8.10
2023-01-11T20:24:33.449Z,8.00
2023-01-11T20:27:01.836Z,8.10
2023-01-11T20:29:28.767Z,8.10
2023-01-11T20:31:58.162Z,8.20
2023-01-11T20:34:29.962Z,8.10
2023-01-11T20:36:58.027Z,8.10
2023-01-11T20:39:24.793Z,8.20
2023-01-11T20:41:51.557Z,8.10
2023-01-11T20:44:22.651Z,8.20
2023-01-11T20:46:50.947Z,8.20
2023-01-11T20:49:19.025Z,8.20
2023-01-11T20:51:46.650Z,8.20
2023-01-11T20:54:18.138Z,8.20
2023-01-11T20:56:45.294Z,8.20
2023-01-11T20:59:13.207Z,8.20
2023-01-11T21:01:40.520Z,8.10
2023-01-11T21:04:10.332Z,8.10
2023-01-11T21:06:40.089Z,8.10
2023-01-11T21:09:09.541Z,8.10
2023-01-11T21:11:41.722Z,8.20
2023-01-11T21:14:08.647Z,8.10
2023-01-11T21:16:35.375Z,8.20
2023-01-11T21:21:56.395Z,8.10
2023-01-11T21:24:23.134Z,8.20
2023-01-11T21:26:51.350Z,8.20
2023-01-11T21:29:18.202Z,8.20
2023-01-11T21:31:45.069Z,8.10
2023-01-11T21:34:13.788Z,8.10
2023-01-11T21:36:42.443Z,8.20
2023-01-11T21:39:13.169Z,8.20
2023-01-11T21:41:40.164Z,8.30
2023-01-11T21:44:09.927Z,8.20
2023-01-11T21:46:37.094Z,8.20
2023-01-11T21:49:04.275Z,8.30
2023-01-11T21:51:31.331Z,8.40
2023-01-11T21:53:59.793Z,8.40
2023-01-11T21:56:27.758Z,8.40
2023-01-11T21:58:54.510Z,8.40
2023-01-11T22:01:22.957Z,8.30
2023-01-11T22:03:50.624Z,8.40
2023-01-11T22:06:17.755Z,8.50
2023-01-11T22:08:45.777Z,8.40
2023-01-11T22:11:16.928Z,8.40
2023-01-11T22:13:44.401Z,8.50
2023-01-11T22:16:15.302Z,8.50
2023-01-11T22:18:45.081Z,8.50
2023-01-11T22:21:14.952Z,8.50
2023-01-11T22:23:42.425Z,8.40
2023-01-11T22:26:13.478Z,8.60
2023-01-11T22:28:41.419Z,8.60
2023-01-11T22:31:08.419Z,8.70
2023-01-11T22:33:36.831Z,8.60
2023-01-11T22:36:05.930Z,8.70
2023-01-11T22:38:32.752Z,8.60
2023-01-11T22:41:00.171Z,8.70
2023-01-11T22:43:26.943Z,8.70
2023-01-11T22:45:57.831Z,8.70
2023-01-11T22:48:24.738Z,8.70
2023-01-11T22:53:46.139Z,8.80
2023-01-11T22:56:16.695Z,9.00
2023-01-11T22:58:43.499Z,8.80
2023-01-11T23:01:12.114Z,8.80
2023-01-11T23:03:39.118Z,8.90
2023-01-11T23:06:06.919Z,8.70
2023-01-11T23:08:36.134Z,8.80
2023-01-11T23:11:04.622Z,8.70
2023-01-11T23:13:31.418Z,8.60
2023-01-11T23:15:58.271Z,8.70
2023-01-11T23:18:24.997Z,8.80
2023-01-11T23:20:51.952Z,8.70
2023-01-11T23:23:18.785Z,8.70
2023-01-11T23:25:45.811Z,8.70
2023-01-11T23:28:13.923Z,8.70
2023-01-11T23:30:40.939Z,8.70
2023-01-11T23:33:07.871Z,8.70
2023-01-11T23:35:34.691Z,8.70
2023-01-11T23:38:01.456Z,8.80
2023-01-11T23:40:28.503Z,8.80
2023-01-11T23:42:55.248Z,8.70
2023-01-11T23:45:23.416Z,8.70
2023-01-11T23:47:50.373Z,8.70
2023-01-11T23:50:17.297Z,8.80
2023-01-11T23:52:44.364Z,8.80
2023-01-11T23:55:11.445Z,8.70
2023-01-11T23:57:38.539Z,8.80
